Time;durP1;ratioP1;P1;durP2;ratioP2;P2;SDS_P1;SDS_P2;PMS_P1;PMS_P2;Temp;Humidity;BMP_temperature;BMP_pressure;BME280_temperature;BME280_humidity;BME280_pressure;Samples;Min_cycle;Max_cycle;Signal;HPM_P1;HPM_P2
2023/03/25 00:02:15;;;;;;;13.00;7.10;;;;;;;;;;4996124;28;20046;-58
2023/03/25 00:04:42;;;;;;;14.63;7.18;;;;;;;;;;5003349;28;20041;-57
2023/03/25 00:07:09;;;;;;;13.52;7.38;;;;;;;;;;4995294;28;20084;-58
2023/03/25 00:09:36;;;;;;;21.02;11.27;;;;;;;;;;4994628;28;20146;-58
2023/03/25 00:12:03;;;;;;;16.98;7.22;;;;;;;;;;4994712;28;20054;-58
2023/03/25 00:14:31;;;;;;;22.13;11.18;;;;;;;;;;4994745;28;20147;-59
2023/03/25 00:17:00;;;;;;;24.67;11.75;;;;;;;;;;4995566;28;20111;-57
2023/03/25 00:19:27;;;;;;;25.75;12.27;;;;;;;;;;4993832;28;20123;-57
2023/03/25 00:21:53;;;;;;;15.20;8.13;;;;;;;;;;4995329;28;20042;-58
2023/03/25 00:24:20;;;;;;;29.58;12.70;;;;;;;;;;4994099;28;20033;-58
2023/03/25 00:26:47;;;;;;;22.10;11.35;;;;;;;;;;4995512;28;20537;-57
2023/03/25 00:29:14;;;;;;;14.50;7.10;;;;;;;;;;4994272;28;20740;-57
2023/03/25 00:31:41;;;;;;;24.10;12.27;;;;;;;;;;4993820;28;20061;-59
2023/03/25 00:34:08;;;;;;;26.98;13.27;;;;;;;;;;4995361;28;20107;-61
2023/03/25 00:36:36;;;;;;;24.05;11.48;;;;;;;;;;4995135;28;20046;-60
2023/03/25 00:39:04;;;;;;;20.30;11.07;;;;;;;;;;4994436;28;20506;-58
2023/03/25 00:41:31;;;;;;;22.80;12.23;;;;;;;;;;4994007;28;21767;-59
2023/03/25 00:43:59;;;;;;;24.30;11.13;;;;;;;;;;4994844;28;20042;-57
2023/03/25 00:46:27;;;;;;;13.40;6.72;;;;;;;;;;4993209;28;20038;-57
2023/03/25 00:48:54;;;;;;;21.33;10.23;;;;;;;;;;4994604;28;20128;-58
2023/03/25 00:51:21;;;;;;;21.80;10.77;;;;;;;;;;4993576;28;20278;-61
2023/03/25 00:53:48;;;;;;;23.75;11.55;;;;;;;;;;4994622;28;20029;-58
2023/03/25 00:56:15;;;;;;;22.60;10.65;;;;;;;;;;4994380;28;20053;-58
2023/03/25 00:58:41;;;;;;;20.73;11.40;;;;;;;;;;4993909;28;20039;-58
2023/03/25 01:01:09;;;;;;;24.30;11.43;;;;;;;;;;4994406;28;20100;-58
2023/03/25 01:03:36;;;;;;;19.27;9.60;;;;;;;;;;4995272;28;20045;-56
2023/03/25 01:06:03;;;;;;;24.83;11.25;;;;;;;;;;4994795;28;20049;-55
2023/03/25 01:08:30;;;;;;;24.15;10.90;;;;;;;;;;4994310;28;20491;-60
2023/03/25 01:10:57;;;;;;;22.38;10.48;;;;;;;;;;4994425;28;20038;-58
2023/03/25 01:13:24;;;;;;;24.65;10.88;;;;;;;;;;4993754;28;20053;-59
2023/03/25 01:15:51;;;;;;;17.77;6.93;;;;;;;;;;4993862;28;20037;-58
2023/03/25 01:18:17;;;;;;;22.48;7.95;;;;;;;;;;4994472;28;20061;-62
2023/03/25 01:20:44;;;;;;;12.93;7.00;;;;;;;;;;4997610;28;20144;-66
2023/03/25 01:23:11;;;;;;;17.50;7.18;;;;;;;;;;4998494;28;20462;-57
2023/03/25 01:25:37;;;;;;;16.48;7.85;;;;;;;;;;4994881;28;20100;-58
2023/03/25 01:28:04;;;;;;;21.00;9.23;;;;;;;;;;4996223;28;20074;-58
2023/03/25 01:30:31;;;;;;;23.10;11.38;;;;;;;;;;5003921;28;20577;-58
2023/03/25 01:32:58;;;;;;;19.40;9.43;;;;;;;;;;4998866;28;20078;-59
2023/03/25 01:35:24;;;;;;;22.00;11.15;;;;;;;;;;4997168;28;20073;-61
2023/03/25 01:37:53;;;;;;;19.08;9.85;;;;;;;;;;4997425;28;20137;-56
2023/03/25 01:40:22;;;;;;;24.40;10.57;;;;;;;;;;5005995;28;20195;-56
2023/03/25 01:42:49;;;;;;;25.75;11.00;;;;;;;;;;5018404;28;20041;-55
2023/03/25 01:45:19;;;;;;;26.27;10.18;;;;;;;;;;5001636;28;20034;-57
2023/03/25 01:47:47;;;;;;;20.73;10.95;;;;;;;;;;4997071;28;20040;-56
2023/03/25 01:50:14;;;;;;;21.75;9.55;;;;;;;;;;4998627;28;20367;-60
2023/03/25 01:52:44;;;;;;;23.67;10.70;;;;;;;;;;4997659;28;20104;-55
2023/03/25 01:55:10;;;;;;;17.77;8.90;;;;;;;;;;4997785;28;20300;-57
2023/03/25 01:57:40;;;;;;;21.15;9.93;;;;;;;;;;5000469;28;21667;-61
2023/03/25 02:00:08;;;;;;;25.33;9.48;;;;;;;;;;5003225;28;20493;-63
2023/03/25 02:02:35;;;;;;;21.27;10.50;;;;;;;;;;4997321;28;20037;-55
2023/03/25 02:05:31;;;;;;;19.27;9.68;;;;;;;;;;4996594;28;20797;-59
2023/03/25 02:07:57;;;;;;;19.48;10.13;;;;;;;;;;4994053;28;20037;-58
2023/03/25 02:10:24;;;;;;;21.50;10.48;;;;;;;;;;4996864;28;20506;-56
2023/03/25 02:12:51;;;;;;;21.85;9.52;;;;;;;;;;4997938;28;20519;-56
2023/03/25 02:15:19;;;;;;;26.58;10.70;;;;;;;;;;4997035;28;20710;-56
2023/03/25 02:17:55;;;;;;;22.90;11.45;;;;;;;;;;4997671;28;20041;-55
2023/03/25 02:20:53;;;;;;;25.33;10.75;;;;;;;;;;4996771;28;20048;-56
2023/03/25 02:23:22;;;;;;;21.38;10.65;;;;;;;;;;4997996;28;20033;-56
2023/03/25 02:25:58;;;;;;;20.45;9.88;;;;;;;;;;4997120;28;20038;-56
2023/03/25 02:28:25;;;;;;;24.23;8.95;;;;;;;;;;4997339;28;20096;-56
2023/03/25 02:30:51;;;;;;;21.27;10.65;;;;;;;;;;4997955;28;20046;-64
2023/03/25 02:33:27;;;;;;;28.27;13.52;;;;;;;;;;4996859;28;22262;-60
2023/03/25 02:36:12;;;;;;;25.17;10.85;;;;;;;;;;4997682;28;20116;-57
2023/03/25 02:38:40;;;;;;;27.08;10.82;;;;;;;;;;4996331;28;20133;-58
2023/03/25 02:41:27;;;;;;;23.38;10.20;;;;;;;;;;5002607;28;20049;-59
2023/03/25 02:43:54;;;;;;;19.33;10.38;;;;;;;;;;5000630;28;20045;-63
2023/03/25 02:46:21;;;;;;;19.60;9.98;;;;;;;;;;4996911;28;20033;-59
2023/03/25 02:48:56;;;;;;;26.05;9.48;;;;;;;;;;4998248;28;20129;-59
2023/03/25 02:51:50;;;;;;;23.13;10.25;;;;;;;;;;4996415;28;20058;-56
2023/03/25 02:54:18;;;;;;;25.02;10.70;;;;;;;;;;4994649;28;20778;-58
2023/03/25 02:56:46;;;;;;;22.52;10.20;;;;;;;;;;4996217;28;20034;-56
2023/03/25 02:59:13;;;;;;;21.77;10.85;;;;;;;;;;4990382;28;21063;-56
2023/03/25 03:01:41;;;;;;;20.40;10.30;;;;;;;;;;4997259;28;20086;-55
2023/03/25 03:04:07;;;;;;;21.75;10.23;;;;;;;;;;4996481;28;20045;-55
2023/03/25 03:06:36;;;;;;;18.65;8.93;;;;;;;;;;4996509;28;20042;-56
2023/03/25 03:09:15;;;;;;;22.75;9.48;;;;;;;;;;5004148;28;20034;-56
2023/03/25 03:12:07;;;;;;;17.50;9.27;;;;;;;;;;4995747;28;22165;-58
2023/03/25 03:14:41;;;;;;;29.02;9.85;;;;;;;;;;5008059;28;20466;-57
2023/03/25 03:17:26;;;;;;;21.67;10.07;;;;;;;;;;4997212;28;20065;-56
2023/03/25 03:19:53;;;;;;;19.42;9.75;;;;;;;;;;5002085;28;20046;-56
2023/03/25 03:22:34;;;;;;;16.85;9.77;;;;;;;;;;4996195;28;20546;-57
2023/03/25 03:25:04;;;;;;;23.90;9.77;;;;;;;;;;4995883;28;20045;-57
2023/03/25 03:27:46;;;;;;;20.45;9.65;;;;;;;;;;4996280;28;20502;-56
2023/03/25 03:30:17;;;;;;;20.75;10.80;;;;;;;;;;4996700;28;20038;-56
2023/03/25 03:32:52;;;;;;;22.55;10.43;;;;;;;;;;5003448;28;20127;-56
2023/03/25 03:35:28;;;;;;;30.05;11.52;;;;;;;;;;5003902;28;20057;-59
2023/03/25 03:38:00;;;;;;;22.17;10.40;;;;;;;;;;5002502;28;20046;-59
2023/03/25 03:40:27;;;;;;;21.70;10.95;;;;;;;;;;4994913;28;20054;-58
2023/03/25 03:42:59;;;;;;;28.45;11.00;;;;;;;;;;4996854;28;20069;-55
2023/03/25 03:45:31;;;;;;;18.67;10.75;;;;;;;;;;4994767;28;20104;-58
2023/03/25 03:48:00;;;;;;;22.20;10.57;;;;;;;;;;4996298;28;20037;-58
2023/03/25 03:50:30;;;;;;;21.30;9.75;;;;;;;;;;4995971;28;20949;-57
2023/03/25 03:53:01;;;;;;;21.52;10.60;;;;;;;;;;4996034;28;20510;-53
2023/03/25 03:55:37;;;;;;;21.33;10.63;;;;;;;;;;4990475;28;20124;-56
2023/03/25 03:58:09;;;;;;;22.58;10.98;;;;;;;;;;5002782;28;20064;-57
2023/03/25 04:00:40;;;;;;;20.90;10.98;;;;;;;;;;4990021;28;20133;-55
2023/03/25 04:03:37;;;;;;;23.70;11.10;;;;;;;;;;4996709;28;20034;-56
2023/03/25 04:06:24;;;;;;;23.20;11.68;;;;;;;;;;5003549;28;20060;-56
2023/03/25 04:08:59;;;;;;;24.17;10.70;;;;;;;;;;4995098;28;20532;-57
2023/03/25 04:11:47;;;;;;;31.38;11.65;;;;;;;;;;4995061;28;20130;-60
2023/03/25 04:14:14;;;;;;;24.40;11.02;;;;;;;;;;4994427;28;20723;-60
2023/03/25 04:16:44;;;;;;;23.55;11.57;;;;;;;;;;4995756;28;20065;-57
2023/03/25 04:19:17;;;;;;;21.48;11.07;;;;;;;;;;4995329;28;20045;-57
2023/03/25 04:21:44;;;;;;;24.85;12.02;;;;;;;;;;5003905;28;20439;-55
2023/03/25 04:24:15;;;;;;;31.00;12.18;;;;;;;;;;4994371;28;20096;-57
2023/03/25 04:26:42;;;;;;;23.67;11.13;;;;;;;;;;4995924;28;20038;-58
2023/03/25 04:29:09;;;;;;;23.27;12.05;;;;;;;;;;4995352;28;20126;-62
2023/03/25 04:31:36;;;;;;;27.33;11.55;;;;;;;;;;4995709;28;20140;-56
2023/03/25 04:34:03;;;;;;;19.50;10.43;;;;;;;;;;4996066;28;20037;-55
2023/03/25 04:36:36;;;;;;;26.02;10.65;;;;;;;;;;4996065;28;20030;-57
2023/03/25 04:39:03;;;;;;;27.08;11.50;;;;;;;;;;4997214;28;20524;-57
2023/03/25 04:41:30;;;;;;;20.45;11.02;;;;;;;;;;5003664;28;20038;-56
2023/03/25 04:43:57;;;;;;;23.50;11.98;;;;;;;;;;4996160;28;20087;-55
2023/03/25 04:46:24;;;;;;;22.55;11.43;;;;;;;;;;4985045;28;20058;-58
2023/03/25 04:48:52;;;;;;;22.95;11.32;;;;;;;;;;5002198;28;20494;-60
2023/03/25 04:51:19;;;;;;;24.95;11.05;;;;;;;;;;4992754;28;20100;-57
2023/03/25 04:53:46;;;;;;;38.67;11.95;;;;;;;;;;4987411;28;20060;-57
2023/03/25 04:56:15;;;;;;;28.35;11.75;;;;;;;;;;5006881;28;20041;-56
2023/03/25 04:58:45;;;;;;;28.05;12.20;;;;;;;;;;4995787;28;20045;-57
2023/03/25 05:01:20;;;;;;;25.00;10.93;;;;;;;;;;4995428;28;20052;-57
2023/03/25 05:03:49;;;;;;;25.08;11.07;;;;;;;;;;5001137;28;20045;-60
2023/03/25 05:06:16;;;;;;;29.77;11.80;;;;;;;;;;4994623;28;20041;-60
2023/03/25 05:08:43;;;;;;;27.88;12.02;;;;;;;;;;4994378;28;20379;-57
2023/03/25 05:11:10;;;;;;;25.83;11.70;;;;;;;;;;4995245;28;20506;-59
2023/03/25 05:13:36;;;;;;;23.90;12.20;;;;;;;;;;4994321;28;20152;-56
2023/03/25 05:16:03;;;;;;;33.80;13.10;;;;;;;;;;4994469;28;20033;-57
2023/03/25 05:18:30;;;;;;;29.30;12.80;;;;;;;;;;4994991;28;20034;-57
2023/03/25 05:20:56;;;;;;;40.08;13.07;;;;;;;;;;4995696;28;20363;-59
2023/03/25 05:23:23;;;;;;;30.20;13.13;;;;;;;;;;4994546;28;20034;-58
2023/03/25 05:25:51;;;;;;;22.90;11.95;;;;;;;;;;4995292;28;20042;-56
2023/03/25 05:28:18;;;;;;;25.38;13.85;;;;;;;;;;4995750;28;20057;-59
2023/03/25 05:30:45;;;;;;;34.30;15.50;;;;;;;;;;5006225;28;20033;-62
2023/03/25 05:33:16;;;;;;;30.60;13.60;;;;;;;;;;4999651;28;20052;-57
2023/03/25 05:35:43;;;;;;;33.80;14.57;;;;;;;;;;5003456;28;20120;-57
2023/03/25 05:38:17;;;;;;;38.17;14.93;;;;;;;;;;4995092;28;20076;-56
2023/03/25 05:40:47;;;;;;;29.40;14.60;;;;;;;;;;5002719;28;21533;-57
2023/03/25 05:43:15;;;;;;;35.65;16.73;;;;;;;;;;4996265;28;20052;-56
2023/03/25 05:45:43;;;;;;;30.45;14.75;;;;;;;;;;4992691;28;20469;-56
2023/03/25 05:48:10;;;;;;;33.28;15.38;;;;;;;;;;4995761;28;20147;-57
2023/03/25 05:50:41;;;;;;;32.50;14.95;;;;;;;;;;4994698;28;20378;-57
2023/03/25 05:53:11;;;;;;;33.45;15.77;;;;;;;;;;4995099;28;20096;-58
2023/03/25 05:55:38;;;;;;;31.00;16.25;;;;;;;;;;4992731;28;20035;-57
2023/03/25 05:58:05;;;;;;;37.50;16.67;;;;;;;;;;4994747;28;21965;-60
2023/03/25 06:00:32;;;;;;;33.10;16.20;;;;;;;;;;4994114;28;20380;-53
2023/03/25 06:03:00;;;;;;;41.28;17.65;;;;;;;;;;4995909;28;20038;-57
2023/03/25 06:05:28;;;;;;;34.47;16.77;;;;;;;;;;4994434;28;20111;-57
2023/03/25 06:07:56;;;;;;;35.42;16.00;;;;;;;;;;4994687;28;20038;-57
2023/03/25 06:10:23;;;;;;;31.33;15.40;;;;;;;;;;4994048;28;20804;-57
2023/03/25 06:12:51;;;;;;;42.30;15.98;;;;;;;;;;4993203;28;20046;-58
2023/03/25 06:15:27;;;;;;;33.17;14.82;;;;;;;;;;4994612;28;20046;-58
2023/03/25 06:17:55;;;;;;;32.97;16.42;;;;;;;;;;5002635;28;20042;-58
2023/03/25 06:20:22;;;;;;;37.08;16.17;;;;;;;;;;4998261;28;20048;-56
2023/03/25 06:22:48;;;;;;;31.67;16.35;;;;;;;;;;4998508;28;20128;-57
2023/03/25 06:25:16;;;;;;;33.67;17.13;;;;;;;;;;4997455;28;21233;-58
2023/03/25 06:27:43;;;;;;;43.67;17.98;;;;;;;;;;4996593;28;20042;-59
2023/03/25 06:30:11;;;;;;;46.42;17.90;;;;;;;;;;4997786;28;20045;-60
2023/03/25 06:32:38;;;;;;;35.83;17.10;;;;;;;;;;5018953;28;20112;-56
2023/03/25 06:35:06;;;;;;;34.30;17.85;;;;;;;;;;4997777;28;20185;-57
2023/03/25 06:37:33;;;;;;;44.53;19.33;;;;;;;;;;4996864;28;20061;-54
2023/03/25 06:40:00;;;;;;;43.95;18.92;;;;;;;;;;4996889;28;20062;-56
2023/03/25 06:42:27;;;;;;;42.30;17.65;;;;;;;;;;4996740;28;20455;-56
2023/03/25 06:44:54;;;;;;;44.50;18.90;;;;;;;;;;4997384;28;20038;-60
2023/03/25 06:47:21;;;;;;;41.03;19.15;;;;;;;;;;4996685;28;20046;-57
2023/03/25 06:49:48;;;;;;;36.30;19.20;;;;;;;;;;4997786;28;20030;-57
2023/03/25 06:52:15;;;;;;;40.75;20.30;;;;;;;;;;4996954;28;20088;-58
2023/03/25 06:54:42;;;;;;;39.70;19.92;;;;;;;;;;4997056;28;20054;-57
2023/03/25 06:57:08;;;;;;;52.05;20.88;;;;;;;;;;4996846;28;20056;-58
2023/03/25 06:59:35;;;;;;;47.08;21.95;;;;;;;;;;4996521;28;20042;-58
2023/03/25 07:02:02;;;;;;;53.63;20.02;;;;;;;;;;4996609;28;20141;-58
2023/03/25 07:04:28;;;;;;;42.45;18.92;;;;;;;;;;4996221;28;20057;-58
2023/03/25 07:06:55;;;;;;;43.00;20.08;;;;;;;;;;4996850;28;20134;-57
2023/03/25 07:09:22;;;;;;;38.53;19.63;;;;;;;;;;4997068;28;20038;-56
2023/03/25 07:11:48;;;;;;;40.40;18.52;;;;;;;;;;4997261;28;20050;-57
2023/03/25 07:14:15;;;;;;;38.03;18.52;;;;;;;;;;4996780;28;20057;-56
2023/03/25 07:16:42;;;;;;;39.65;18.30;;;;;;;;;;4995894;28;20129;-58
2023/03/25 07:19:08;;;;;;;41.45;18.88;;;;;;;;;;4996469;28;20038;-58
2023/03/25 07:21:35;;;;;;;41.55;17.42;;;;;;;;;;4996452;28;20042;-58
2023/03/25 07:24:01;;;;;;;35.25;18.08;;;;;;;;;;4995790;28;20073;-54
2023/03/25 07:26:28;;;;;;;33.10;17.58;;;;;;;;;;4994907;28;20048;-57
2023/03/25 07:28:55;;;;;;;38.75;19.10;;;;;;;;;;4996282;28;20471;-57
2023/03/25 07:31:21;;;;;;;43.78;21.35;;;;;;;;;;4995306;28;20058;-58
2023/03/25 07:33:50;;;;;;;44.22;21.17;;;;;;;;;;4996446;28;20038;-55
2023/03/25 07:36:17;;;;;;;44.53;21.52;;;;;;;;;;4996357;28;20077;-58
2023/03/25 07:38:43;;;;;;;46.47;21.00;;;;;;;;;;4996528;28;20478;-57
2023/03/25 07:41:11;;;;;;;40.97;21.67;;;;;;;;;;4996837;28;20042;-56
2023/03/25 07:43:38;;;;;;;49.35;22.95;;;;;;;;;;4995178;28;20102;-57
2023/03/25 07:46:05;;;;;;;50.13;22.80;;;;;;;;;;4996384;28;20038;-56
2023/03/25 07:48:32;;;;;;;54.83;22.73;;;;;;;;;;4995466;28;20060;-60
2023/03/25 07:50:59;;;;;;;50.38;22.02;;;;;;;;;;4996671;28;20042;-57
2023/03/25 07:53:26;;;;;;;50.97;21.75;;;;;;;;;;4996027;28;20050;-60
2023/03/25 07:55:53;;;;;;;45.65;20.35;;;;;;;;;;4996383;28;20061;-59
2023/03/25 07:58:19;;;;;;;44.22;20.90;;;;;;;;;;5015968;28;20052;-58
2023/03/25 08:00:46;;;;;;;46.75;21.05;;;;;;;;;;5000971;28;20818;-56
2023/03/25 08:03:13;;;;;;;46.13;20.38;;;;;;;;;;5000416;28;20133;-57
2023/03/25 08:05:46;;;;;;;40.13;19.75;;;;;;;;;;4997588;28;20127;-60
2023/03/25 08:08:13;;;;;;;36.88;17.25;;;;;;;;;;5000596;28;20052;-60
2023/03/25 08:10:42;;;;;;;44.80;21.30;;;;;;;;;;4995653;28;20216;-58
2023/03/25 08:13:09;;;;;;;41.80;19.65;;;;;;;;;;4996743;28;20054;-56
2023/03/25 08:15:36;;;;;;;48.92;21.48;;;;;;;;;;4995414;28;20514;-57
2023/03/25 08:18:04;;;;;;;53.35;20.15;;;;;;;;;;4995609;28;20083;-58
2023/03/25 08:20:30;;;;;;;48.72;22.00;;;;;;;;;;4996291;28;20053;-57
2023/03/25 08:22:57;;;;;;;48.35;21.80;;;;;;;;;;4996372;28;20042;-58
2023/03/25 08:25:24;;;;;;;53.42;24.75;;;;;;;;;;4994537;28;20081;-57
2023/03/25 08:27:51;;;;;;;48.15;23.85;;;;;;;;;;4994851;28;20042;-62
2023/03/25 08:30:18;;;;;;;59.38;24.55;;;;;;;;;;4996070;28;20577;-59
2023/03/25 08:32:53;;;;;;;61.42;27.67;;;;;;;;;;5003642;28;20049;-58
2023/03/25 08:35:20;;;;;;;69.15;28.95;;;;;;;;;;4995828;28;20208;-57
2023/03/25 08:37:47;;;;;;;68.38;29.13;;;;;;;;;;5003045;28;20100;-56
2023/03/25 08:40:17;;;;;;;71.32;30.75;;;;;;;;;;4995315;28;20053;-57
2023/03/25 08:42:45;;;;;;;75.82;32.75;;;;;;;;;;4994426;28;20099;-54
2023/03/25 08:45:12;;;;;;;82.65;34.63;;;;;;;;;;4995690;28;20054;-56
2023/03/25 08:47:39;;;;;;;80.68;34.30;;;;;;;;;;4994901;28;20433;-55
2023/03/25 08:50:06;;;;;;;84.28;35.78;;;;;;;;;;4995805;28;20088;-57
2023/03/25 08:52:32;;;;;;;82.57;37.65;;;;;;;;;;4994539;28;20461;-57
2023/03/25 08:54:59;;;;;;;79.18;35.13;;;;;;;;;;5001584;28;20115;-56
2023/03/25 08:57:25;;;;;;;75.10;33.60;;;;;;;;;;4998448;28;20041;-56
2023/03/25 08:59:52;;;;;;;82.80;37.35;;;;;;;;;;5013150;28;20033;-53
2023/03/25 09:02:19;;;;;;;88.22;37.10;;;;;;;;;;5000873;28;20494;-56
2023/03/25 09:04:47;;;;;;;80.50;35.45;;;;;;;;;;4996576;28;20049;-56
2023/03/25 09:07:14;;;;;;;80.72;36.20;;;;;;;;;;4996491;28;20053;-56
2023/03/25 09:09:41;;;;;;;81.55;37.42;;;;;;;;;;4996136;28;20053;-60
2023/03/25 09:12:08;;;;;;;74.60;35.45;;;;;;;;;;4994888;28;20049;-59
2023/03/25 09:14:34;;;;;;;86.15;35.28;;;;;;;;;;4994852;28;20038;-56
2023/03/25 09:17:01;;;;;;;74.95;33.08;;;;;;;;;;4994389;28;20053;-64
2023/03/25 09:19:28;;;;;;;87.95;37.40;;;;;;;;;;4994790;28;20050;-55
2023/03/25 09:21:54;;;;;;;83.57;38.42;;;;;;;;;;5002878;28;20505;-56
2023/03/25 09:24:21;;;;;;;89.47;40.45;;;;;;;;;;4993719;28;20047;-54
2023/03/25 09:26:48;;;;;;;76.55;36.80;;;;;;;;;;4994795;28;20038;-55
2023/03/25 09:29:15;;;;;;;78.82;34.88;;;;;;;;;;4994762;28;20034;-55
2023/03/25 09:31:41;;;;;;;82.65;38.13;;;;;;;;;;4994589;28;20061;-59
2023/03/25 09:34:08;;;;;;;88.28;38.78;;;;;;;;;;4995300;28;20034;-59
2023/03/25 09:36:36;;;;;;;85.20;37.08;;;;;;;;;;4994875;28;20045;-56
2023/03/25 09:39:02;;;;;;;86.80;38.28;;;;;;;;;;4993766;28;20058;-55
2023/03/25 09:41:38;;;;;;;82.97;36.95;;;;;;;;;;4993304;28;20041;-57
2023/03/25 09:44:14;;;;;;;83.07;36.45;;;;;;;;;;4994547;28;20093;-55
2023/03/25 09:46:41;;;;;;;81.75;35.65;;;;;;;;;;4994789;28;20061;-57
2023/03/25 09:49:14;;;;;;;82.93;37.28;;;;;;;;;;4994180;28;20046;-56
2023/03/25 09:51:42;;;;;;;83.95;37.85;;;;;;;;;;4996668;28;20050;-60
2023/03/25 09:54:16;;;;;;;80.57;38.15;;;;;;;;;;4997634;28;20045;-58
2023/03/25 09:56:43;;;;;;;95.55;39.15;;;;;;;;;;5006155;28;20049;-58
2023/03/25 09:59:22;;;;;;;86.35;39.97;;;;;;;;;;4998525;28;20482;-57
2023/03/25 10:02:08;;;;;;;90.22;39.67;;;;;;;;;;5005101;28;20062;-61
2023/03/25 10:04:40;;;;;;;87.60;38.85;;;;;;;;;;4997497;28;20515;-58
2023/03/25 10:07:26;;;;;;;80.05;38.13;;;;;;;;;;4997496;28;20092;-57
2023/03/25 10:09:58;;;;;;;82.95;36.95;;;;;;;;;;5004029;28;20045;-61
2023/03/25 10:12:57;;;;;;;81.05;36.20;;;;;;;;;;4996748;28;20060;-58
2023/03/25 10:15:31;;;;;;;89.88;39.00;;;;;;;;;;4991814;28;20042;-56
2023/03/25 10:18:04;;;;;;;93.90;39.25;;;;;;;;;;4997498;28;20041;-57
2023/03/25 10:20:46;;;;;;;73.75;28.95;;;;;;;;;;4996856;28;20046;-58
2023/03/25 10:23:13;;;;;;;80.93;37.83;;;;;;;;;;4996978;28;20045;-59
2023/03/25 10:25:41;;;;;;;76.88;38.28;;;;;;;;;;4997092;28;20053;-59
2023/03/25 10:28:12;;;;;;;79.30;38.85;;;;;;;;;;5016215;28;20037;-58
2023/03/25 10:30:42;;;;;;;81.85;38.55;;;;;;;;;;4997547;28;20056;-58
2023/03/25 10:33:16;;;;;;;88.50;38.70;;;;;;;;;;4998192;28;20695;-63
2023/03/25 10:35:46;;;;;;;76.18;38.13;;;;;;;;;;5004774;28;20046;-59
2023/03/25 10:38:17;;;;;;;81.72;37.40;;;;;;;;;;4998423;28;20198;-59
2023/03/25 10:40:51;;;;;;;76.93;36.65;;;;;;;;;;4997361;28;20418;-58
2023/03/25 10:43:25;;;;;;;86.50;37.47;;;;;;;;;;4996848;28;20155;-57
2023/03/25 10:45:55;;;;;;;70.40;32.92;;;;;;;;;;4998296;28;20042;-57
2023/03/25 10:48:24;;;;;;;78.15;36.08;;;;;;;;;;4996351;28;20561;-56
2023/03/25 10:51:11;;;;;;;79.15;35.53;;;;;;;;;;4997615;28;20061;-58
2023/03/25 10:53:40;;;;;;;64.95;32.58;;;;;;;;;;4996458;28;21438;-57
2023/03/25 10:56:25;;;;;;;78.32;34.30;;;;;;;;;;4996860;28;20037;-58
2023/03/25 10:58:55;;;;;;;71.60;32.15;;;;;;;;;;4996838;28;20046;-61
2023/03/25 11:01:34;;;;;;;82.40;34.33;;;;;;;;;;4996968;28;20069;-58
2023/03/25 11:04:03;;;;;;;68.72;33.20;;;;;;;;;;4996380;28;20920;-58
2023/03/25 11:06:31;;;;;;;65.50;31.77;;;;;;;;;;4996717;28;20037;-57
2023/03/25 11:09:11;;;;;;;71.40;31.75;;;;;;;;;;4997034;28;20083;-56
2023/03/25 11:11:37;;;;;;;66.35;28.25;;;;;;;;;;4996900;28;20057;-58
2023/03/25 11:14:04;;;;;;;67.55;31.08;;;;;;;;;;4996280;28;20153;-57
2023/03/25 11:16:36;;;;;;;70.57;31.17;;;;;;;;;;4997421;28;20046;-55
2023/03/25 11:19:03;;;;;;;68.28;31.25;;;;;;;;;;4997118;28;20049;-56
2023/03/25 11:21:34;;;;;;;65.75;31.55;;;;;;;;;;4996320;28;20690;-57
2023/03/25 11:24:01;;;;;;;70.55;32.78;;;;;;;;;;4997060;28;20070;-58
2023/03/25 11:26:31;;;;;;;72.85;32.22;;;;;;;;;;4996106;28;20589;-57
2023/03/25 11:29:02;;;;;;;69.63;31.38;;;;;;;;;;4997532;28;20058;-56
2023/03/25 11:31:29;;;;;;;63.33;30.90;;;;;;;;;;4996007;28;20081;-59
2023/03/25 11:34:10;;;;;;;71.90;32.58;;;;;;;;;;4995386;28;20394;-58
2023/03/25 11:36:47;;;;;;;76.15;30.35;;;;;;;;;;4996281;28;20156;-58
2023/03/25 11:39:18;;;;;;;65.93;31.92;;;;;;;;;;4996343;28;20054;-58
2023/03/25 11:41:45;;;;;;;71.20;31.70;;;;;;;;;;5011704;28;20164;-60
2023/03/25 11:44:38;;;;;;;55.58;29.15;;;;;;;;;;4996839;28;20042;-56
2023/03/25 11:47:06;;;;;;;64.50;28.38;;;;;;;;;;4999295;28;20049;-58
2023/03/25 11:49:36;;;;;;;67.75;29.73;;;;;;;;;;4994891;28;20793;-57
2023/03/25 11:52:08;;;;;;;66.43;29.10;;;;;;;;;;4995532;28;20053;-56
2023/03/25 11:54:36;;;;;;;68.15;28.27;;;;;;;;;;4995180;28;20045;-57
2023/03/25 11:57:03;;;;;;;58.88;27.85;;;;;;;;;;4997036;28;20053;-57
2023/03/25 11:59:38;;;;;;;72.72;29.58;;;;;;;;;;4995431;28;20409;-57
2023/03/25 12:02:22;;;;;;;68.03;29.08;;;;;;;;;;4996686;28;20121;-57
2023/03/25 12:05:15;;;;;;;64.22;28.58;;;;;;;;;;5002936;28;20049;-57
2023/03/25 12:07:42;;;;;;;47.33;19.90;;;;;;;;;;5001369;28;20050;-56
2023/03/25 12:10:15;;;;;;;57.58;25.50;;;;;;;;;;4995049;28;20085;-57
2023/03/25 12:12:57;;;;;;;59.35;26.33;;;;;;;;;;4995278;28;20104;-56
2023/03/25 12:15:36;;;;;;;60.58;26.75;;;;;;;;;;4995589;28;20042;-59
2023/03/25 12:18:06;;;;;;;55.58;25.92;;;;;;;;;;4996735;28;20689;-53
2023/03/25 12:20:38;;;;;;;61.55;26.73;;;;;;;;;;4995069;28;20038;-57
2023/03/25 12:23:31;;;;;;;56.30;25.75;;;;;;;;;;4995577;28;20474;-56
2023/03/25 12:26:22;;;;;;;62.10;27.15;;;;;;;;;;5001242;28;20072;-58
2023/03/25 12:28:50;;;;;;;56.20;26.20;;;;;;;;;;4994439;28;20149;-57
2023/03/25 12:31:35;;;;;;;64.22;27.75;;;;;;;;;;4994974;28;20172;-58
2023/03/25 12:34:07;;;;;;;55.13;26.92;;;;;;;;;;5000600;28;20038;-57
2023/03/25 12:36:43;;;;;;;56.13;26.42;;;;;;;;;;4995074;28;21782;-59
2023/03/25 12:39:16;;;;;;;56.70;25.63;;;;;;;;;;4994428;28;20165;-55
2023/03/25 12:42:12;;;;;;;60.58;27.00;;;;;;;;;;4993818;28;20060;-59
2023/03/25 12:44:56;;;;;;;61.08;25.67;;;;;;;;;;4995641;28;20062;-56
2023/03/25 12:47:25;;;;;;;58.88;26.63;;;;;;;;;;4993991;28;20051;-57
2023/03/25 12:49:58;;;;;;;60.80;26.50;;;;;;;;;;4994141;28;20037;-57
2023/03/25 12:52:51;;;;;;;65.20;28.50;;;;;;;;;;4995759;28;20042;-57
2023/03/25 12:55:24;;;;;;;55.22;25.55;;;;;;;;;;4998814;28;20037;-59
2023/03/25 12:58:03;;;;;;;65.47;28.35;;;;;;;;;;5002214;28;20038;-59
2023/03/25 13:00:49;;;;;;;60.15;25.30;;;;;;;;;;4994883;28;20196;-58
2023/03/25 13:03:41;;;;;;;67.53;28.15;;;;;;;;;;4995009;28;20406;-58
2023/03/25 13:06:29;;;;;;;70.57;29.30;;;;;;;;;;4997282;28;21810;-60
2023/03/25 13:08:58;;;;;;;67.18;26.52;;;;;;;;;;4994242;28;20060;-57
2023/03/25 13:11:31;;;;;;;95.25;29.67;;;;;;;;;;4994447;28;20034;-57
2023/03/25 13:14:01;;;;;;;82.57;29.30;;;;;;;;;;4994484;28;20050;-58
2023/03/25 13:16:28;;;;;;;80.13;31.55;;;;;;;;;;4994689;28;20057;-59
2023/03/25 13:19:11;;;;;;;76.45;31.77;;;;;;;;;;4994615;28;20038;-57
2023/03/25 13:21:40;;;;;;;86.50;32.03;;;;;;;;;;4994652;28;20046;-58
2023/03/25 13:24:21;;;;;;;68.50;28.65;;;;;;;;;;4995226;28;20057;-56
2023/03/25 13:26:49;;;;;;;72.35;30.35;;;;;;;;;;5004271;28;20124;-57
2023/03/25 13:29:23;;;;;;;88.80;32.53;;;;;;;;;;4997962;28;20042;-57
2023/03/25 13:31:50;;;;;;;81.90;31.85;;;;;;;;;;5032586;28;20102;-58
2023/03/25 13:34:35;;;;;;;80.22;32.42;;;;;;;;;;5001243;28;20070;-62
2023/03/25 13:37:20;;;;;;;78.50;31.63;;;;;;;;;;5003434;28;20587;-60
2023/03/25 13:40:12;;;;;;;67.97;29.75;;;;;;;;;;5017084;28;20653;-60
2023/03/25 13:42:57;;;;;;;82.70;33.25;;;;;;;;;;4998693;28;20446;-62
2023/03/25 13:45:26;;;;;;;79.53;32.80;;;;;;;;;;4998253;28;20037;-58
2023/03/25 13:48:14;;;;;;;81.50;33.45;;;;;;;;;;4997633;28;20080;-60
2023/03/25 13:50:40;;;;;;;85.35;34.15;;;;;;;;;;4998955;28;20568;-58
2023/03/25 13:53:21;;;;;;;78.10;31.95;;;;;;;;;;4998310;28;20041;-56
2023/03/25 13:56:03;;;;;;;74.25;30.23;;;;;;;;;;4997464;28;20049;-59
2023/03/25 13:58:30;;;;;;;73.03;32.53;;;;;;;;;;4996868;28;20045;-58
2023/03/25 14:01:10;;;;;;;81.43;34.22;;;;;;;;;;4997549;28;20065;-63
2023/03/25 14:03:40;;;;;;;72.60;32.78;;;;;;;;;;4996204;28;20049;-58
2023/03/25 14:06:28;;;;;;;78.07;32.85;;;;;;;;;;4998808;28;20069;-59
2023/03/25 14:08:57;;;;;;;76.40;33.17;;;;;;;;;;5003255;28;20064;-57
2023/03/25 14:11:24;;;;;;;73.32;32.05;;;;;;;;;;4997512;28;20061;-57
2023/03/25 14:13:51;;;;;;;75.65;34.50;;;;;;;;;;4998231;28;20039;-60
2023/03/25 14:16:19;;;;;;;82.53;34.30;;;;;;;;;;4997314;28;20037;-60
2023/03/25 14:18:48;;;;;;;80.35;33.55;;;;;;;;;;4998372;28;20053;-57
2023/03/25 14:21:23;;;;;;;79.10;34.20;;;;;;;;;;4997923;28;20050;-60
2023/03/25 14:24:00;;;;;;;78.57;32.38;;;;;;;;;;5019265;28;20485;-59
2023/03/25 14:26:27;;;;;;;79.97;33.45;;;;;;;;;;4997240;28;20034;-58
2023/03/25 14:28:56;;;;;;;84.10;34.05;;;;;;;;;;4997731;28;20469;-58
2023/03/25 14:31:23;;;;;;;86.10;35.00;;;;;;;;;;4996060;28;20572;-57
2023/03/25 14:34:01;;;;;;;79.28;34.80;;;;;;;;;;4997359;28;20052;-55
2023/03/25 14:36:29;;;;;;;74.38;33.10;;;;;;;;;;4997026;28;21018;-55
2023/03/25 14:38:56;;;;;;;90.30;35.78;;;;;;;;;;4996187;28;20054;-59
2023/03/25 14:41:42;;;;;;;72.93;34.97;;;;;;;;;;4996541;28;20030;-57